sensor_id;sensor_type;location;lat;lon;timestamp;P1;durP1;ratioP1;P2;durP2;ratioP2
69890;SDS011;57170;43.964;21.262;2022-09-13T00:00:49;10.45;;;6.72;;
69890;SDS011;57170;43.964;21.262;2022-09-13T00:03:15;11.48;;;7.95;;
69890;SDS011;57170;43.964;21.262;2022-09-13T00:05:41;9.35;;;6.95;;
69890;SDS011;57170;43.964;21.262;2022-09-13T00:08:07;10.20;;;7.63;;
69890;SDS011;57170;43.964;21.262;2022-09-13T00:10:34;9.45;;;6.70;;
69890;SDS011;57170;43.964;21.262;2022-09-13T00:13:01;8.90;;;7.13;;
69890;SDS011;57170;43.964;21.262;2022-09-13T00:15:28;7.50;;;6.35;;
69890;SDS011;57170;43.964;21.262;2022-09-13T00:17:54;12.63;;;6.43;;
69890;SDS011;57170;43.964;21.262;2022-09-13T00:20:20;8.23;;;7.32;;
69890;SDS011;57170;43.964;21.262;2022-09-13T00:22:46;9.77;;;7.05;;
69890;SDS011;57170;43.964;21.262;2022-09-13T00:25:13;10.02;;;6.63;;
69890;SDS011;57170;43.964;21.262;2022-09-13T00:27:39;7.80;;;6.32;;
69890;SDS011;57170;43.964;21.262;2022-09-13T00:30:05;9.50;;;7.20;;
69890;SDS011;57170;43.964;21.262;2022-09-13T00:32:32;9.00;;;6.78;;
69890;SDS011;57170;43.964;21.262;2022-09-13T00:34:59;11.07;;;7.40;;
69890;SDS011;57170;43.964;21.262;2022-09-13T00:37:25;11.15;;;7.03;;
69890;SDS011;57170;43.964;21.262;2022-09-13T00:39:51;8.13;;;6.75;;
69890;SDS011;57170;43.964;21.262;2022-09-13T00:42:23;9.93;;;7.28;;
69890;SDS011;57170;43.964;21.262;2022-09-13T00:50:21;8.98;;;6.45;;
69890;SDS011;57170;43.964;21.262;2022-09-13T00:55:33;10.40;;;6.35;;
69890;SDS011;57170;43.964;21.262;2022-09-13T00:58:07;11.85;;;6.07;;
69890;SDS011;57170;43.964;21.262;2022-09-13T01:00:34;9.73;;;6.80;;
69890;SDS011;57170;43.964;21.262;2022-09-13T01:03:03;8.15;;;6.38;;
69890;SDS011;57170;43.964;21.262;2022-09-13T01:05:53;8.27;;;6.38;;
69890;SDS011;57170;43.964;21.262;2022-09-13T01:08:17;8.70;;;6.60;;
69890;SDS011;57170;43.964;21.262;2022-09-13T01:10:47;8.65;;;6.53;;
69890;SDS011;57170;43.964;21.262;2022-09-13T01:15:44;8.95;;;6.10;;
69890;SDS011;57170;43.964;21.262;2022-09-13T01:18:10;13.93;;;6.82;;
69890;SDS011;57170;43.964;21.262;2022-09-13T01:20:40;10.68;;;7.88;;
69890;SDS011;57170;43.964;21.262;2022-09-13T01:23:31;11.20;;;6.53;;
69890;SDS011;57170;43.964;21.262;2022-09-13T01:38:42;10.23;;;6.25;;
69890;SDS011;57170;43.964;21.262;2022-09-13T01:46:18;10.57;;;6.15;;
69890;SDS011;57170;43.964;21.262;2022-09-13T01:51:31;9.85;;;6.22;;
69890;SDS011;57170;43.964;21.262;2022-09-13T01:58:58;8.35;;;6.47;;
69890;SDS011;57170;43.964;21.262;2022-09-13T02:01:39;12.65;;;5.88;;
69890;SDS011;57170;43.964;21.262;2022-09-13T02:04:08;10.75;;;7.20;;
69890;SDS011;57170;43.964;21.262;2022-09-13T02:06:45;10.32;;;6.22;;
69890;SDS011;57170;43.964;21.262;2022-09-13T02:09:15;16.65;;;6.97;;
69890;SDS011;57170;43.964;21.262;2022-09-13T02:11:43;8.18;;;6.07;;
69890;SDS011;57170;43.964;21.262;2022-09-13T02:14:19;13.57;;;5.93;;
69890;SDS011;57170;43.964;21.262;2022-09-13T02:16:51;8.52;;;6.57;;
69890;SDS011;57170;43.964;21.262;2022-09-13T02:19:24;11.23;;;7.47;;
69890;SDS011;57170;43.964;21.262;2022-09-13T02:21:55;8.88;;;5.95;;
69890;SDS011;57170;43.964;21.262;2022-09-13T02:24:24;8.45;;;6.45;;
69890;SDS011;57170;43.964;21.262;2022-09-13T02:26:51;9.43;;;7.05;;
69890;SDS011;57170;43.964;21.262;2022-09-13T02:29:18;9.80;;;6.40;;
69890;SDS011;57170;43.964;21.262;2022-09-13T02:34:19;10.70;;;7.50;;
69890;SDS011;57170;43.964;21.262;2022-09-13T02:36:46;10.73;;;6.63;;
69890;SDS011;57170;43.964;21.262;2022-09-13T02:39:16;10.43;;;7.07;;
69890;SDS011;57170;43.964;21.262;2022-09-13T02:44:40;9.52;;;6.65;;
69890;SDS011;57170;43.964;21.262;2022-09-13T02:50:02;7.45;;;6.13;;
69890;SDS011;57170;43.964;21.262;2022-09-13T02:58:01;8.10;;;6.45;;
69890;SDS011;57170;43.964;21.262;2022-09-13T03:00:28;9.70;;;7.25;;
69890;SDS011;57170;43.964;21.262;2022-09-13T03:02:55;11.63;;;7.32;;
69890;SDS011;57170;43.964;21.262;2022-09-13T03:05:21;13.10;;;7.40;;
69890;SDS011;57170;43.964;21.262;2022-09-13T03:07:47;9.32;;;6.60;;
69890;SDS011;57170;43.964;21.262;2022-09-13T03:10:14;8.80;;;6.55;;
69890;SDS011;57170;43.964;21.262;2022-09-13T03:25:56;9.23;;;7.53;;
69890;SDS011;57170;43.964;21.262;2022-09-13T03:31:11;8.45;;;7.07;;
69890;SDS011;57170;43.964;21.262;2022-09-13T03:38:36;7.57;;;6.45;;
69890;SDS011;57170;43.964;21.262;2022-09-13T03:41:08;10.50;;;6.82;;
69890;SDS011;57170;43.964;21.262;2022-09-13T03:43:45;11.75;;;7.82;;
69890;SDS011;57170;43.964;21.262;2022-09-13T03:46:23;9.77;;;6.78;;
69890;SDS011;57170;43.964;21.262;2022-09-13T03:48:51;10.13;;;6.15;;
69890;SDS011;57170;43.964;21.262;2022-09-13T03:51:18;12.77;;;6.82;;
69890;SDS011;57170;43.964;21.262;2022-09-13T03:53:47;8.50;;;6.30;;
69890;SDS011;57170;43.964;21.262;2022-09-13T03:56:15;9.30;;;6.35;;
69890;SDS011;57170;43.964;21.262;2022-09-13T03:58:42;10.57;;;7.38;;
69890;SDS011;57170;43.964;21.262;2022-09-13T04:01:08;10.05;;;7.38;;
69890;SDS011;57170;43.964;21.262;2022-09-13T04:03:35;9.63;;;6.82;;
69890;SDS011;57170;43.964;21.262;2022-09-13T04:06:01;9.20;;;7.20;;
69890;SDS011;57170;43.964;21.262;2022-09-13T04:08:27;10.55;;;6.90;;
69890;SDS011;57170;43.964;21.262;2022-09-13T04:10:54;9.40;;;6.88;;
69890;SDS011;57170;43.964;21.262;2022-09-13T04:13:29;9.70;;;6.63;;
69890;SDS011;57170;43.964;21.262;2022-09-13T04:15:59;11.80;;;8.38;;
69890;SDS011;57170;43.964;21.262;2022-09-13T04:18:28;10.57;;;6.78;;
69890;SDS011;57170;43.964;21.262;2022-09-13T04:20:55;13.00;;;7.45;;
69890;SDS011;57170;43.964;21.262;2022-09-13T04:23:22;9.57;;;7.65;;
69890;SDS011;57170;43.964;21.262;2022-09-13T04:25:48;13.00;;;9.02;;
69890;SDS011;57170;43.964;21.262;2022-09-13T04:28:16;13.90;;;8.13;;
69890;SDS011;57170;43.964;21.262;2022-09-13T04:30:45;8.18;;;6.32;;
69890;SDS011;57170;43.964;21.262;2022-09-13T04:33:12;10.38;;;7.40;;
69890;SDS011;57170;43.964;21.262;2022-09-13T04:35:38;11.80;;;7.35;;
69890;SDS011;57170;43.964;21.262;2022-09-13T04:38:05;10.10;;;7.18;;
69890;SDS011;57170;43.964;21.262;2022-09-13T04:40:31;14.63;;;7.40;;
69890;SDS011;57170;43.964;21.262;2022-09-13T04:43:02;8.93;;;7.43;;
69890;SDS011;57170;43.964;21.262;2022-09-13T04:45:28;9.43;;;7.35;;
69890;SDS011;57170;43.964;21.262;2022-09-13T04:47:54;11.80;;;7.68;;
69890;SDS011;57170;43.964;21.262;2022-09-13T04:50:21;10.20;;;8.15;;
69890;SDS011;57170;43.964;21.262;2022-09-13T04:52:47;11.35;;;7.93;;
69890;SDS011;57170;43.964;21.262;2022-09-13T04:55:14;10.48;;;7.38;;
69890;SDS011;57170;43.964;21.262;2022-09-13T04:57:40;9.27;;;7.63;;
69890;SDS011;57170;43.964;21.262;2022-09-13T05:00:07;11.00;;;7.68;;
69890;SDS011;57170;43.964;21.262;2022-09-13T05:02:34;9.15;;;7.00;;
69890;SDS011;57170;43.964;21.262;2022-09-13T05:05:00;9.63;;;8.25;;
69890;SDS011;57170;43.964;21.262;2022-09-13T05:07:27;10.88;;;8.77;;
69890;SDS011;57170;43.964;21.262;2022-09-13T05:09:53;8.20;;;6.38;;
69890;SDS011;57170;43.964;21.262;2022-09-13T05:12:19;11.15;;;7.60;;
69890;SDS011;57170;43.964;21.262;2022-09-13T05:14:45;7.70;;;7.00;;
69890;SDS011;57170;43.964;21.262;2022-09-13T05:17:11;9.57;;;7.20;;
69890;SDS011;57170;43.964;21.262;2022-09-13T05:19:37;10.90;;;6.50;;
69890;SDS011;57170;43.964;21.262;2022-09-13T05:22:03;9.00;;;7.80;;
69890;SDS011;57170;43.964;21.262;2022-09-13T05:24:29;11.52;;;9.30;;
69890;SDS011;57170;43.964;21.262;2022-09-13T05:26:56;9.73;;;8.10;;
69890;SDS011;57170;43.964;21.262;2022-09-13T05:29:22;8.40;;;7.45;;
69890;SDS011;57170;43.964;21.262;2022-09-13T05:31:48;11.60;;;8.35;;
69890;SDS011;57170;43.964;21.262;2022-09-13T05:34:15;9.82;;;8.45;;
69890;SDS011;57170;43.964;21.262;2022-09-13T05:36:44;9.88;;;7.72;;
69890;SDS011;57170;43.964;21.262;2022-09-13T05:39:14;11.35;;;7.72;;
69890;SDS011;57170;43.964;21.262;2022-09-13T05:41:42;9.27;;;7.47;;
69890;SDS011;57170;43.964;21.262;2022-09-13T05:44:08;8.68;;;6.90;;
69890;SDS011;57170;43.964;21.262;2022-09-13T05:46:35;9.88;;;6.88;;
69890;SDS011;57170;43.964;21.262;2022-09-13T05:49:01;10.70;;;8.00;;
69890;SDS011;57170;43.964;21.262;2022-09-13T05:51:28;9.57;;;6.97;;
69890;SDS011;57170;43.964;21.262;2022-09-13T05:53:55;8.77;;;7.40;;
69890;SDS011;57170;43.964;21.262;2022-09-13T05:56:25;8.35;;;7.55;;
69890;SDS011;57170;43.964;21.262;2022-09-13T05:58:51;11.85;;;9.05;;
69890;SDS011;57170;43.964;21.262;2022-09-13T06:01:20;12.23;;;9.20;;
69890;SDS011;57170;43.964;21.262;2022-09-13T06:03:47;11.60;;;8.77;;
69890;SDS011;57170;43.964;21.262;2022-09-13T06:06:13;11.13;;;8.43;;
69890;SDS011;57170;43.964;21.262;2022-09-13T06:08:40;10.57;;;9.05;;
69890;SDS011;57170;43.964;21.262;2022-09-13T06:11:07;12.75;;;8.52;;
69890;SDS011;57170;43.964;21.262;2022-09-13T06:13:34;9.63;;;8.13;;
69890;SDS011;57170;43.964;21.262;2022-09-13T06:16:01;9.90;;;9.00;;
69890;SDS011;57170;43.964;21.262;2022-09-13T06:18:28;13.40;;;9.68;;
69890;SDS011;57170;43.964;21.262;2022-09-13T06:20:58;13.57;;;11.70;;
69890;SDS011;57170;43.964;21.262;2022-09-13T06:23:24;16.23;;;13.73;;
69890;SDS011;57170;43.964;21.262;2022-09-13T06:25:58;12.80;;;11.70;;
69890;SDS011;57170;43.964;21.262;2022-09-13T06:28:24;13.27;;;11.32;;
69890;SDS011;57170;43.964;21.262;2022-09-13T06:30:50;12.15;;;10.95;;
69890;SDS011;57170;43.964;21.262;2022-09-13T06:33:16;11.07;;;9.98;;
69890;SDS011;57170;43.964;21.262;2022-09-13T06:35:42;14.85;;;9.23;;
69890;SDS011;57170;43.964;21.262;2022-09-13T06:38:08;9.88;;;8.88;;
69890;SDS011;57170;43.964;21.262;2022-09-13T06:40:34;10.95;;;8.90;;
69890;SDS011;57170;43.964;21.262;2022-09-13T06:43:00;12.25;;;9.85;;
69890;SDS011;57170;43.964;21.262;2022-09-13T06:45:26;13.25;;;10.30;;
69890;SDS011;57170;43.964;21.262;2022-09-13T06:47:53;17.27;;;11.73;;
69890;SDS011;57170;43.964;21.262;2022-09-13T06:50:20;11.05;;;9.95;;
69890;SDS011;57170;43.964;21.262;2022-09-13T06:52:46;9.85;;;8.95;;
69890;SDS011;57170;43.964;21.262;2022-09-13T06:55:12;12.15;;;8.45;;
69890;SDS011;57170;43.964;21.262;2022-09-13T06:57:38;9.35;;;6.85;;
69890;SDS011;57170;43.964;21.262;2022-09-13T07:00:04;8.15;;;6.75;;
69890;SDS011;57170;43.964;21.262;2022-09-13T07:02:31;10.07;;;6.35;;
69890;SDS011;57170;43.964;21.262;2022-09-13T07:04:57;8.02;;;6.75;;
69890;SDS011;57170;43.964;21.262;2022-09-13T07:07:23;8.65;;;6.82;;
69890;SDS011;57170;43.964;21.262;2022-09-13T07:09:49;6.95;;;5.90;;
69890;SDS011;57170;43.964;21.262;2022-09-13T07:12:15;6.95;;;6.25;;
69890;SDS011;57170;43.964;21.262;2022-09-13T07:14:41;6.28;;;5.68;;
69890;SDS011;57170;43.964;21.262;2022-09-13T07:17:07;9.60;;;7.78;;
69890;SDS011;57170;43.964;21.262;2022-09-13T07:19:33;9.68;;;8.73;;
69890;SDS011;57170;43.964;21.262;2022-09-13T07:21:59;9.85;;;6.55;;
69890;SDS011;57170;43.964;21.262;2022-09-13T07:24:26;7.40;;;6.28;;
69890;SDS011;57170;43.964;21.262;2022-09-13T07:26:52;9.65;;;6.45;;
69890;SDS011;57170;43.964;21.262;2022-09-13T07:29:19;6.72;;;6.07;;
69890;SDS011;57170;43.964;21.262;2022-09-13T07:31:48;7.55;;;6.80;;
69890;SDS011;57170;43.964;21.262;2022-09-13T07:34:15;6.65;;;6.05;;
69890;SDS011;57170;43.964;21.262;2022-09-13T07:36:42;7.55;;;6.03;;
69890;SDS011;57170;43.964;21.262;2022-09-13T07:39:10;7.15;;;6.32;;
69890;SDS011;57170;43.964;21.262;2022-09-13T07:41:37;7.50;;;6.85;;
69890;SDS011;57170;43.964;21.262;2022-09-13T07:44:03;7.85;;;6.25;;
69890;SDS011;57170;43.964;21.262;2022-09-13T07:46:32;7.63;;;6.65;;
69890;SDS011;57170;43.964;21.262;2022-09-13T07:49:04;9.00;;;6.38;;
69890;SDS011;57170;43.964;21.262;2022-09-13T07:51:31;6.68;;;6.07;;
69890;SDS011;57170;43.964;21.262;2022-09-13T07:53:58;7.72;;;6.65;;
69890;SDS011;57170;43.964;21.262;2022-09-13T07:56:26;7.95;;;6.07;;
69890;SDS011;57170;43.964;21.262;2022-09-13T07:58:52;7.50;;;5.80;;
69890;SDS011;57170;43.964;21.262;2022-09-13T08:01:24;7.05;;;6.45;;
69890;SDS011;57170;43.964;21.262;2022-09-13T08:03:55;8.82;;;6.00;;
69890;SDS011;57170;43.964;21.262;2022-09-13T08:06:22;7.10;;;5.90;;
69890;SDS011;57170;43.964;21.262;2022-09-13T08:08:48;7.18;;;6.45;;
69890;SDS011;57170;43.964;21.262;2022-09-13T08:11:18;7.00;;;6.30;;
69890;SDS011;57170;43.964;21.262;2022-09-13T08:13:45;6.72;;;5.97;;
69890;SDS011;57170;43.964;21.262;2022-09-13T08:16:11;7.15;;;6.30;;
69890;SDS011;57170;43.964;21.262;2022-09-13T08:18:42;10.07;;;6.47;;
69890;SDS011;57170;43.964;21.262;2022-09-13T08:21:08;7.50;;;6.10;;
69890;SDS011;57170;43.964;21.262;2022-09-13T08:23:34;8.27;;;5.85;;
69890;SDS011;57170;43.964;21.262;2022-09-13T08:26:00;9.85;;;5.97;;
69890;SDS011;57170;43.964;21.262;2022-09-13T08:28:27;6.97;;;6.28;;
69890;SDS011;57170;43.964;21.262;2022-09-13T08:30:53;7.00;;;6.20;;
69890;SDS011;57170;43.964;21.262;2022-09-13T08:33:19;6.80;;;5.57;;
69890;SDS011;57170;43.964;21.262;2022-09-13T08:35:49;7.65;;;5.70;;
69890;SDS011;57170;43.964;21.262;2022-09-13T08:38:16;6.17;;;5.13;;
69890;SDS011;57170;43.964;21.262;2022-09-13T08:40:44;6.55;;;5.95;;
69890;SDS011;57170;43.964;21.262;2022-09-13T08:43:23;6.97;;;6.30;;
69890;SDS011;57170;43.964;21.262;2022-09-13T08:48:20;7.47;;;4.68;;
69890;SDS011;57170;43.964;21.262;2022-09-13T08:50:58;6.45;;;4.28;;
69890;SDS011;57170;43.964;21.262;2022-09-13T08:53:29;6.30;;;5.50;;
69890;SDS011;57170;43.964;21.262;2022-09-13T08:56:07;7.22;;;4.97;;
69890;SDS011;57170;43.964;21.262;2022-09-13T09:01:13;6.70;;;6.10;;
69890;SDS011;57170;43.964;21.262;2022-09-13T09:06:11;7.68;;;6.32;;
69890;SDS011;57170;43.964;21.262;2022-09-13T09:08:39;7.78;;;6.90;;
69890;SDS011;57170;43.964;21.262;2022-09-13T09:11:09;6.40;;;5.80;;
69890;SDS011;57170;43.964;21.262;2022-09-13T09:13:49;5.00;;;4.50;;
69890;SDS011;57170;43.964;21.262;2022-09-13T09:18:52;7.22;;;4.43;;
69890;SDS011;57170;43.964;21.262;2022-09-13T09:21:20;6.10;;;5.50;;
69890;SDS011;57170;43.964;21.262;2022-09-13T09:23:53;5.07;;;4.40;;
69890;SDS011;57170;43.964;21.262;2022-09-13T09:26:20;5.43;;;4.43;;
69890;SDS011;57170;43.964;21.262;2022-09-13T09:28:53;5.70;;;4.38;;
69890;SDS011;57170;43.964;21.262;2022-09-13T09:31:23;5.13;;;4.10;;
69890;SDS011;57170;43.964;21.262;2022-09-13T09:39:02;5.82;;;4.55;;
69890;SDS011;57170;43.964;21.262;2022-09-13T09:41:29;6.70;;;4.55;;
69890;SDS011;57170;43.964;21.262;2022-09-13T09:46:41;5.10;;;4.60;;
69890;SDS011;57170;43.964;21.262;2022-09-13T09:49:13;6.97;;;3.78;;
69890;SDS011;57170;43.964;21.262;2022-09-13T09:52:00;6.40;;;5.80;;
69890;SDS011;57170;43.964;21.262;2022-09-13T09:54:27;5.43;;;4.50;;
69890;SDS011;57170;43.964;21.262;2022-09-13T09:56:54;5.60;;;3.75;;
69890;SDS011;57170;43.964;21.262;2022-09-13T09:59:24;5.03;;;4.10;;
69890;SDS011;57170;43.964;21.262;2022-09-13T10:01:52;4.75;;;3.70;;
69890;SDS011;57170;43.964;21.262;2022-09-13T10:04:20;6.38;;;3.38;;
69890;SDS011;57170;43.964;21.262;2022-09-13T10:06:47;4.82;;;2.70;;
69890;SDS011;57170;43.964;21.262;2022-09-13T10:09:14;5.25;;;2.92;;
69890;SDS011;57170;43.964;21.262;2022-09-13T10:14:25;5.88;;;4.03;;
69890;SDS011;57170;43.964;21.262;2022-09-13T10:17:02;5.03;;;3.67;;
69890;SDS011;57170;43.964;21.262;2022-09-13T10:19:31;4.32;;;3.80;;
69890;SDS011;57170;43.964;21.262;2022-09-13T10:22:01;5.60;;;3.65;;
69890;SDS011;57170;43.964;21.262;2022-09-13T10:24:27;4.10;;;3.28;;
69890;SDS011;57170;43.964;21.262;2022-09-13T10:26:54;4.50;;;3.50;;
69890;SDS011;57170;43.964;21.262;2022-09-13T10:29:21;3.95;;;3.22;;
69890;SDS011;57170;43.964;21.262;2022-09-13T10:31:48;5.65;;;3.17;;
69890;SDS011;57170;43.964;21.262;2022-09-13T10:37:03;4.00;;;3.27;;
69890;SDS011;57170;43.964;21.262;2022-09-13T10:39:33;4.93;;;4.22;;
69890;SDS011;57170;43.964;21.262;2022-09-13T10:42:01;4.57;;;3.45;;
69890;SDS011;57170;43.964;21.262;2022-09-13T10:44:31;5.55;;;3.33;;
69890;SDS011;57170;43.964;21.262;2022-09-13T10:47:02;4.63;;;3.17;;
69890;SDS011;57170;43.964;21.262;2022-09-13T10:49:49;4.85;;;2.80;;
69890;SDS011;57170;43.964;21.262;2022-09-13T10:52:35;4.43;;;3.33;;
69890;SDS011;57170;43.964;21.262;2022-09-13T10:57:42;7.00;;;4.35;;
69890;SDS011;57170;43.964;21.262;2022-09-13T11:00:10;3.72;;;2.97;;
69890;SDS011;57170;43.964;21.262;2022-09-13T11:10:35;4.60;;;3.38;;
69890;SDS011;57170;43.964;21.262;2022-09-13T11:13:13;5.32;;;3.88;;
69890;SDS011;57170;43.964;21.262;2022-09-13T11:20:49;8.33;;;3.53;;
69890;SDS011;57170;43.964;21.262;2022-09-13T11:28:40;6.93;;;3.72;;
69890;SDS011;57170;43.964;21.262;2022-09-13T11:39:04;5.47;;;3.00;;
69890;SDS011;57170;43.964;21.262;2022-09-13T11:49:20;4.50;;;3.45;;
69890;SDS011;57170;43.964;21.262;2022-09-13T11:56:58;5.50;;;4.03;;
69890;SDS011;57170;43.964;21.262;2022-09-13T12:02:19;5.28;;;4.18;;
69890;SDS011;57170;43.964;21.262;2022-09-13T12:04:49;6.47;;;3.42;;
69890;SDS011;57170;43.964;21.262;2022-09-13T12:07:28;10.70;;;4.80;;
69890;SDS011;57170;43.964;21.262;2022-09-13T12:10:01;5.05;;;3.40;;
69890;SDS011;57170;43.964;21.262;2022-09-13T12:12:30;4.13;;;2.97;;
69890;SDS011;57170;43.964;21.262;2022-09-13T12:15:12;4.72;;;3.38;;
69890;SDS011;57170;43.964;21.262;2022-09-13T12:20:37;5.53;;;3.70;;
69890;SDS011;57170;43.964;21.262;2022-09-13T12:23:06;4.93;;;3.92;;
69890;SDS011;57170;43.964;21.262;2022-09-13T12:25:42;5.55;;;3.80;;
69890;SDS011;57170;43.964;21.262;2022-09-13T12:30:59;5.05;;;3.33;;
69890;SDS011;57170;43.964;21.262;2022-09-13T12:33:26;4.60;;;3.58;;
69890;SDS011;57170;43.964;21.262;2022-09-13T12:45:49;4.38;;;3.40;;
69890;SDS011;57170;43.964;21.262;2022-09-13T13:01:28;5.07;;;4.32;;
69890;SDS011;57170;43.964;21.262;2022-09-13T13:11:55;4.88;;;3.35;;
69890;SDS011;57170;43.964;21.262;2022-09-13T13:14:29;42.75;;;7.53;;
69890;SDS011;57170;43.964;21.262;2022-09-13T13:19:52;8.02;;;3.72;;
69890;SDS011;57170;43.964;21.262;2022-09-13T13:25:29;10.50;;;4.30;;
69890;SDS011;57170;43.964;21.262;2022-09-13T13:27:50;5.68;;;3.95;;
69890;SDS011;57170;43.964;21.262;2022-09-13T13:33:17;7.00;;;3.42;;
69890;SDS011;57170;43.964;21.262;2022-09-13T13:35:43;4.93;;;3.60;;
69890;SDS011;57170;43.964;21.262;2022-09-13T13:40:49;4.63;;;3.35;;
69890;SDS011;57170;43.964;21.262;2022-09-13T13:46:36;3.80;;;3.20;;
69890;SDS011;57170;43.964;21.262;2022-09-13T13:48:43;7.57;;;4.28;;
69890;SDS011;57170;43.964;21.262;2022-09-13T13:53:39;5.97;;;4.00;;
69890;SDS011;57170;43.964;21.262;2022-09-13T13:56:20;5.75;;;4.00;;
69890;SDS011;57170;43.964;21.262;2022-09-13T13:58:49;5.38;;;3.58;;
69890;SDS011;57170;43.964;21.262;2022-09-13T14:01:17;6.70;;;3.65;;
69890;SDS011;57170;43.964;21.262;2022-09-13T14:03:48;5.10;;;3.67;;
69890;SDS011;57170;43.964;21.262;2022-09-13T14:06:23;5.70;;;4.38;;
69890;SDS011;57170;43.964;21.262;2022-09-13T14:14:51;4.53;;;3.83;;
69890;SDS011;57170;43.964;21.262;2022-09-13T14:17:13;7.00;;;4.20;;
69890;SDS011;57170;43.964;21.262;2022-09-13T14:19:49;5.38;;;4.10;;
69890;SDS011;57170;43.964;21.262;2022-09-13T14:22:20;5.07;;;4.13;;
69890;SDS011;57170;43.964;21.262;2022-09-13T14:24:47;4.63;;;3.75;;
69890;SDS011;57170;43.964;21.262;2022-09-13T14:27:15;6.80;;;4.00;;
69890;SDS011;57170;43.964;21.262;2022-09-13T14:29:45;5.28;;;4.47;;
69890;SDS011;57170;43.964;21.262;2022-09-13T14:32:13;5.50;;;4.30;;
69890;SDS011;57170;43.964;21.262;2022-09-13T14:34:49;29.60;;;6.93;;
69890;SDS011;57170;43.964;21.262;2022-09-13T14:37:16;8.95;;;4.18;;
69890;SDS011;57170;43.964;21.262;2022-09-13T14:39:53;17.58;;;6.80;;
69890;SDS011;57170;43.964;21.262;2022-09-13T14:42:19;12.95;;;5.18;;
69890;SDS011;57170;43.964;21.262;2022-09-13T14:44:46;5.72;;;4.38;;
69890;SDS011;57170;43.964;21.262;2022-09-13T14:47:33;5.90;;;4.30;;
69890;SDS011;57170;43.964;21.262;2022-09-13T14:50:10;9.45;;;4.75;;
69890;SDS011;57170;43.964;21.262;2022-09-13T14:52:41;5.43;;;4.35;;
69890;SDS011;57170;43.964;21.262;2022-09-13T14:55:13;9.02;;;4.68;;
69890;SDS011;57170;43.964;21.262;2022-09-13T14:57:44;10.13;;;5.40;;
69890;SDS011;57170;43.964;21.262;2022-09-13T15:00:15;9.57;;;5.82;;
69890;SDS011;57170;43.964;21.262;2022-09-13T15:02:45;10.10;;;5.28;;
69890;SDS011;57170;43.964;21.262;2022-09-13T15:05:13;7.13;;;4.05;;
69890;SDS011;57170;43.964;21.262;2022-09-13T15:07:40;8.60;;;4.10;;
69890;SDS011;57170;43.964;21.262;2022-09-13T15:10:17;4.68;;;3.75;;
69890;SDS011;57170;43.964;21.262;2022-09-13T15:12:48;6.80;;;4.05;;
69890;SDS011;57170;43.964;21.262;2022-09-13T15:17:54;8.55;;;4.38;;
69890;SDS011;57170;43.964;21.262;2022-09-13T15:20:21;7.28;;;6.03;;
69890;SDS011;57170;43.964;21.262;2022-09-13T15:22:47;6.07;;;4.97;;
69890;SDS011;57170;43.964;21.262;2022-09-13T15:25:24;6.45;;;5.18;;
69890;SDS011;57170;43.964;21.262;2022-09-13T15:27:51;6.32;;;4.60;;
69890;SDS011;57170;43.964;21.262;2022-09-13T15:30:22;9.68;;;4.72;;
69890;SDS011;57170;43.964;21.262;2022-09-13T15:32:49;5.97;;;4.75;;
69890;SDS011;57170;43.964;21.262;2022-09-13T15:35:29;6.57;;;4.63;;
69890;SDS011;57170;43.964;21.262;2022-09-13T15:37:59;8.52;;;4.43;;
69890;SDS011;57170;43.964;21.262;2022-09-13T15:40:27;6.10;;;4.75;;
69890;SDS011;57170;43.964;21.262;2022-09-13T15:42:53;6.47;;;5.10;;
69890;SDS011;57170;43.964;21.262;2022-09-13T15:45:20;8.57;;;5.07;;
69890;SDS011;57170;43.964;21.262;2022-09-13T15:47:47;6.65;;;4.43;;
69890;SDS011;57170;43.964;21.262;2022-09-13T15:50:21;6.20;;;4.70;;
69890;SDS011;57170;43.964;21.262;2022-09-13T15:52:48;8.02;;;4.30;;
69890;SDS011;57170;43.964;21.262;2022-09-13T15:55:14;5.68;;;4.00;;
69890;SDS011;57170;43.964;21.262;2022-09-13T15:57:40;6.18;;;4.18;;
69890;SDS011;57170;43.964;21.262;2022-09-13T16:00:13;8.00;;;3.75;;
69890;SDS011;57170;43.964;21.262;2022-09-13T16:02:39;6.25;;;4.13;;
69890;SDS011;57170;43.964;21.262;2022-09-13T16:05:05;11.32;;;4.65;;
69890;SDS011;57170;43.964;21.262;2022-09-13T16:07:33;9.07;;;5.65;;
69890;SDS011;57170;43.964;21.262;2022-09-13T16:09:59;7.97;;;5.55;;
69890;SDS011;57170;43.964;21.262;2022-09-13T16:12:25;7.97;;;5.00;;
69890;SDS011;57170;43.964;21.262;2022-09-13T16:14:51;8.88;;;6.30;;
69890;SDS011;57170;43.964;21.262;2022-09-13T16:17:25;9.23;;;6.20;;
69890;SDS011;57170;43.964;21.262;2022-09-13T16:19:52;8.68;;;6.20;;
69890;SDS011;57170;43.964;21.262;2022-09-13T16:22:18;8.77;;;6.70;;
69890;SDS011;57170;43.964;21.262;2022-09-13T16:24:45;8.80;;;6.13;;
69890;SDS011;57170;43.964;21.262;2022-09-13T16:27:12;11.00;;;7.25;;
69890;SDS011;57170;43.964;21.262;2022-09-13T16:29:38;7.80;;;6.07;;
69890;SDS011;57170;43.964;21.262;2022-09-13T16:32:04;9.80;;;6.57;;
69890;SDS011;57170;43.964;21.262;2022-09-13T16:34:31;6.95;;;5.28;;
69890;SDS011;57170;43.964;21.262;2022-09-13T16:36:57;18.17;;;8.85;;
69890;SDS011;57170;43.964;21.262;2022-09-13T16:39:23;11.77;;;7.50;;
69890;SDS011;57170;43.964;21.262;2022-09-13T16:41:49;11.73;;;7.45;;
69890;SDS011;57170;43.964;21.262;2022-09-13T16:44:15;7.78;;;5.82;;
69890;SDS011;57170;43.964;21.262;2022-09-13T16:46:41;10.10;;;6.60;;
69890;SDS011;57170;43.964;21.262;2022-09-13T16:49:08;12.98;;;6.43;;
69890;SDS011;57170;43.964;21.262;2022-09-13T16:51:34;8.27;;;5.22;;
69890;SDS011;57170;43.964;21.262;2022-09-13T16:54:00;10.15;;;7.45;;
69890;SDS011;57170;43.964;21.262;2022-09-13T16:56:28;7.15;;;4.45;;
69890;SDS011;57170;43.964;21.262;2022-09-13T16:58:57;8.80;;;5.80;;
69890;SDS011;57170;43.964;21.262;2022-09-13T17:01:24;7.72;;;5.47;;
69890;SDS011;57170;43.964;21.262;2022-09-13T17:03:51;6.93;;;5.55;;
69890;SDS011;57170;43.964;21.262;2022-09-13T17:06:17;9.05;;;6.07;;
69890;SDS011;57170;43.964;21.262;2022-09-13T17:08:48;8.45;;;6.10;;
69890;SDS011;57170;43.964;21.262;2022-09-13T17:11:15;8.23;;;5.38;;
69890;SDS011;57170;43.964;21.262;2022-09-13T17:13:42;9.85;;;5.68;;
69890;SDS011;57170;43.964;21.262;2022-09-13T17:16:19;9.60;;;6.18;;
69890;SDS011;57170;43.964;21.262;2022-09-13T17:18:45;15.02;;;8.88;;
69890;SDS011;57170;43.964;21.262;2022-09-13T17:21:12;9.00;;;6.63;;
69890;SDS011;57170;43.964;21.262;2022-09-13T17:23:38;13.65;;;5.53;;
69890;SDS011;57170;43.964;21.262;2022-09-13T17:26:04;14.13;;;6.30;;
69890;SDS011;57170;43.964;21.262;2022-09-13T17:28:30;11.23;;;7.80;;
69890;SDS011;57170;43.964;21.262;2022-09-13T17:30:56;14.73;;;9.95;;
69890;SDS011;57170;43.964;21.262;2022-09-13T17:33:22;13.52;;;9.07;;
69890;SDS011;57170;43.964;21.262;2022-09-13T17:35:56;12.77;;;9.10;;
69890;SDS011;57170;43.964;21.262;2022-09-13T17:38:23;12.18;;;9.07;;
69890;SDS011;57170;43.964;21.262;2022-09-13T17:43:44;13.52;;;7.70;;
69890;SDS011;57170;43.964;21.262;2022-09-13T17:46:15;9.98;;;7.65;;
69890;SDS011;57170;43.964;21.262;2022-09-13T17:48:41;13.73;;;10.65;;
69890;SDS011;57170;43.964;21.262;2022-09-13T17:51:15;16.73;;;10.00;;
69890;SDS011;57170;43.964;21.262;2022-09-13T17:53:42;10.95;;;8.70;;
69890;SDS011;57170;43.964;21.262;2022-09-13T17:56:10;8.60;;;6.97;;
69890;SDS011;57170;43.964;21.262;2022-09-13T17:58:37;9.80;;;6.13;;
69890;SDS011;57170;43.964;21.262;2022-09-13T18:01:03;9.43;;;6.32;;
69890;SDS011;57170;43.964;21.262;2022-09-13T18:03:30;10.10;;;6.57;;